sensor_id;sensor_type;location;lat;lon;timestamp;temperature;humidity
40059;SHT31;25763;49.972;8.568;2024-03-29T00:00:25;7.27;72.97
40059;SHT31;25763;49.972;8.568;2024-03-29T00:02:50;7.21;73.22
40059;SHT31;25763;49.972;8.568;2024-03-29T00:05:16;7.07;73.12
40059;SHT31;25763;49.972;8.568;2024-03-29T00:07:41;6.99;73.58
40059;SHT31;25763;49.972;8.568;2024-03-29T00:10:06;6.92;73.56
40059;SHT31;25763;49.972;8.568;2024-03-29T00:12:32;6.75;74.26
40059;SHT31;25763;49.972;8.568;2024-03-29T00:14:57;6.72;74.51
40059;SHT31;25763;49.972;8.568;2024-03-29T00:17:22;6.69;74.62
40059;SHT31;25763;49.972;8.568;2024-03-29T00:19:48;6.81;74.09
40059;SHT31;25763;49.972;8.568;2024-03-29T00:22:13;6.71;75.03
40059;SHT31;25763;49.972;8.568;2024-03-29T00:24:38;6.79;74.09
40059;SHT31;25763;49.972;8.568;2024-03-29T00:27:04;6.86;73.95
40059;SHT31;25763;49.972;8.568;2024-03-29T00:29:29;6.93;73.91
40059;SHT31;25763;49.972;8.568;2024-03-29T00:31:55;7.00;73.59
40059;SHT31;25763;49.972;8.568;2024-03-29T00:34:20;7.03;73.45
40059;SHT31;25763;49.972;8.568;2024-03-29T00:36:46;7.03;73.26
40059;SHT31;25763;49.972;8.568;2024-03-29T00:39:11;7.06;73.41
40059;SHT31;25763;49.972;8.568;2024-03-29T00:41:37;7.10;73.47
40059;SHT31;25763;49.972;8.568;2024-03-29T00:44:02;7.16;73.37
40059;SHT31;25763;49.972;8.568;2024-03-29T00:46:28;7.14;73.47
40059;SHT31;25763;49.972;8.568;2024-03-29T00:48:54;7.17;73.78
40059;SHT31;25763;49.972;8.568;2024-03-29T00:51:19;7.17;73.53
40059;SHT31;25763;49.972;8.568;2024-03-29T00:53:44;7.21;73.41
40059;SHT31;25763;49.972;8.568;2024-03-29T00:56:10;7.21;73.49
40059;SHT31;25763;49.972;8.568;2024-03-29T00:58:35;7.28;73.50
40059;SHT31;25763;49.972;8.568;2024-03-29T01:01:00;7.26;73.31
40059;SHT31;25763;49.972;8.568;2024-03-29T01:03:26;7.26;73.63
40059;SHT31;25763;49.972;8.568;2024-03-29T01:05:54;7.17;74.25
40059;SHT31;25763;49.972;8.568;2024-03-29T01:08:19;7.18;74.22
40059;SHT31;25763;49.972;8.568;2024-03-29T01:10:45;7.26;74.01
40059;SHT31;25763;49.972;8.568;2024-03-29T01:13:10;7.30;73.77
40059;SHT31;25763;49.972;8.568;2024-03-29T01:15:35;7.35;73.46
40059;SHT31;25763;49.972;8.568;2024-03-29T01:18:01;7.41;73.27
40059;SHT31;25763;49.972;8.568;2024-03-29T01:20:26;7.45;73.17
40059;SHT31;25763;49.972;8.568;2024-03-29T01:22:51;7.48;72.95
40059;SHT31;25763;49.972;8.568;2024-03-29T01:25:17;7.52;73.09
40059;SHT31;25763;49.972;8.568;2024-03-29T01:27:43;7.53;72.99
40059;SHT31;25763;49.972;8.568;2024-03-29T01:30:09;7.58;73.02
40059;SHT31;25763;49.972;8.568;2024-03-29T01:32:34;7.56;72.76
40059;SHT31;25763;49.972;8.568;2024-03-29T01:35:00;7.56;72.77
40059;SHT31;25763;49.972;8.568;2024-03-29T01:37:25;7.60;72.65
40059;SHT31;25763;49.972;8.568;2024-03-29T01:39:51;7.62;72.69
40059;SHT31;25763;49.972;8.568;2024-03-29T01:42:16;7.65;72.55
40059;SHT31;25763;49.972;8.568;2024-03-29T01:44:42;7.65;72.54
40059;SHT31;25763;49.972;8.568;2024-03-29T01:47:07;7.67;72.44
40059;SHT31;25763;49.972;8.568;2024-03-29T01:49:33;7.67;72.32
40059;SHT31;25763;49.972;8.568;2024-03-29T01:51:59;7.67;72.15
40059;SHT31;25763;49.972;8.568;2024-03-29T01:54:24;7.67;72.07
40059;SHT31;25763;49.972;8.568;2024-03-29T01:56:50;7.49;71.91
40059;SHT31;25763;49.972;8.568;2024-03-29T01:59:16;7.49;71.82
40059;SHT31;25763;49.972;8.568;2024-03-29T02:01:42;7.56;72.14
40059;SHT31;25763;49.972;8.568;2024-03-29T02:04:08;7.58;72.09
40059;SHT31;25763;49.972;8.568;2024-03-29T02:06:34;7.60;72.22
40059;SHT31;25763;49.972;8.568;2024-03-29T02:09:00;7.58;72.18
40059;SHT31;25763;49.972;8.568;2024-03-29T02:11:25;7.58;72.17
40059;SHT31;25763;49.972;8.568;2024-03-29T02:13:51;7.56;72.22
40059;SHT31;25763;49.972;8.568;2024-03-29T02:16:17;7.56;72.16
40059;SHT31;25763;49.972;8.568;2024-03-29T02:18:42;7.59;72.19
40059;SHT31;25763;49.972;8.568;2024-03-29T02:21:08;7.56;72.33
40059;SHT31;25763;49.972;8.568;2024-03-29T02:23:36;7.44;72.31
40059;SHT31;25763;49.972;8.568;2024-03-29T02:26:02;7.44;72.41
40059;SHT31;25763;49.972;8.568;2024-03-29T02:28:28;7.49;72.48
40059;SHT31;25763;49.972;8.568;2024-03-29T02:30:53;7.52;72.55
40059;SHT31;25763;49.972;8.568;2024-03-29T02:33:21;7.51;72.51
40059;SHT31;25763;49.972;8.568;2024-03-29T02:35:46;7.56;72.26
40059;SHT31;25763;49.972;8.568;2024-03-29T02:38:11;7.60;72.28
40059;SHT31;25763;49.972;8.568;2024-03-29T02:40:37;7.63;72.21
40059;SHT31;25763;49.972;8.568;2024-03-29T02:43:02;7.56;72.02
40059;SHT31;25763;49.972;8.568;2024-03-29T02:45:27;7.56;72.01
40059;SHT31;25763;49.972;8.568;2024-03-29T02:47:53;7.62;72.14
40059;SHT31;25763;49.972;8.568;2024-03-29T02:50:18;7.65;72.45
40059;SHT31;25763;49.972;8.568;2024-03-29T02:52:43;7.67;72.39
40059;SHT31;25763;49.972;8.568;2024-03-29T02:55:09;7.66;72.48
40059;SHT31;25763;49.972;8.568;2024-03-29T02:57:37;7.49;72.61
40059;SHT31;25763;49.972;8.568;2024-03-29T03:00:07;7.55;72.55
40059;SHT31;25763;49.972;8.568;2024-03-29T03:02:38;7.55;73.05
40059;SHT31;25763;49.972;8.568;2024-03-29T03:05:04;7.62;72.92
40059;SHT31;25763;49.972;8.568;2024-03-29T03:07:30;7.52;73.71
40059;SHT31;25763;49.972;8.568;2024-03-29T03:10:13;7.36;74.04
40059;SHT31;25763;49.972;8.568;2024-03-29T03:13:02;7.53;73.25
40059;SHT31;25763;49.972;8.568;2024-03-29T03:15:27;7.55;73.40
40059;SHT31;25763;49.972;8.568;2024-03-29T03:17:52;7.62;73.40
40059;SHT31;25763;49.972;8.568;2024-03-29T03:20:18;7.62;73.49
40059;SHT31;25763;49.972;8.568;2024-03-29T03:22:44;7.62;73.36
40059;SHT31;25763;49.972;8.568;2024-03-29T03:25:10;7.63;74.00
40059;SHT31;25763;49.972;8.568;2024-03-29T03:27:35;7.60;73.41
40059;SHT31;25763;49.972;8.568;2024-03-29T03:30:00;7.52;73.80
40059;SHT31;25763;49.972;8.568;2024-03-29T03:32:26;7.62;73.75
40059;SHT31;25763;49.972;8.568;2024-03-29T03:34:51;7.66;73.94
40059;SHT31;25763;49.972;8.568;2024-03-29T03:37:16;7.56;74.25
40059;SHT31;25763;49.972;8.568;2024-03-29T03:39:41;7.66;74.29
40059;SHT31;25763;49.972;8.568;2024-03-29T03:42:07;7.65;74.55
40059;SHT31;25763;49.972;8.568;2024-03-29T03:44:32;7.70;74.51
40059;SHT31;25763;49.972;8.568;2024-03-29T03:46:57;7.76;74.09
40059;SHT31;25763;49.972;8.568;2024-03-29T03:49:23;7.77;73.85
40059;SHT31;25763;49.972;8.568;2024-03-29T03:51:48;7.71;75.00
40059;SHT31;25763;49.972;8.568;2024-03-29T03:54:13;7.73;74.50
40059;SHT31;25763;49.972;8.568;2024-03-29T03:56:39;7.77;74.53
40059;SHT31;25763;49.972;8.568;2024-03-29T03:59:04;7.70;75.37
40059;SHT31;25763;49.972;8.568;2024-03-29T04:01:29;7.59;75.62
40059;SHT31;25763;49.972;8.568;2024-03-29T04:03:55;7.58;75.95
40059;SHT31;25763;49.972;8.568;2024-03-29T04:06:20;7.67;75.36
40059;SHT31;25763;49.972;8.568;2024-03-29T04:08:46;7.67;75.73
40059;SHT31;25763;49.972;8.568;2024-03-29T04:11:11;7.65;76.16
40059;SHT31;25763;49.972;8.568;2024-03-29T04:13:37;7.59;76.54
40059;SHT31;25763;49.972;8.568;2024-03-29T04:16:05;7.42;77.00
40059;SHT31;25763;49.972;8.568;2024-03-29T04:18:31;7.31;77.73
40059;SHT31;25763;49.972;8.568;2024-03-29T04:20:58;7.35;78.03
40059;SHT31;25763;49.972;8.568;2024-03-29T04:23:23;7.39;78.07
40059;SHT31;25763;49.972;8.568;2024-03-29T04:25:55;7.51;77.50
40059;SHT31;25763;49.972;8.568;2024-03-29T04:28:21;7.55;77.53
40059;SHT31;25763;49.972;8.568;2024-03-29T04:30:57;7.48;78.14
40059;SHT31;25763;49.972;8.568;2024-03-29T04:33:23;7.59;77.32
40059;SHT31;25763;49.972;8.568;2024-03-29T04:35:53;7.62;77.13
40059;SHT31;25763;49.972;8.568;2024-03-29T04:38:19;7.62;77.74
40059;SHT31;25763;49.972;8.568;2024-03-29T04:40:44;7.67;77.15
40059;SHT31;25763;49.972;8.568;2024-03-29T04:43:09;7.70;76.64
40059;SHT31;25763;49.972;8.568;2024-03-29T04:45:34;7.76;76.55
40059;SHT31;25763;49.972;8.568;2024-03-29T04:48:00;7.77;76.71
40059;SHT31;25763;49.972;8.568;2024-03-29T04:50:25;7.67;78.30
40059;SHT31;25763;49.972;8.568;2024-03-29T04:52:50;7.77;77.81
40059;SHT31;25763;49.972;8.568;2024-03-29T04:55:16;7.76;78.24
40059;SHT31;25763;49.972;8.568;2024-03-29T04:57:41;7.75;78.38
40059;SHT31;25763;49.972;8.568;2024-03-29T05:00:07;7.71;78.78
40059;SHT31;25763;49.972;8.568;2024-03-29T05:02:33;7.59;79.81
40059;SHT31;25763;49.972;8.568;2024-03-29T05:04:58;7.62;80.13
40059;SHT31;25763;49.972;8.568;2024-03-29T05:07:24;7.49;80.33
40059;SHT31;25763;49.972;8.568;2024-03-29T05:09:49;7.48;80.55
40059;SHT31;25763;49.972;8.568;2024-03-29T05:12:14;7.44;81.00
40059;SHT31;25763;49.972;8.568;2024-03-29T05:14:39;7.39;81.35
40059;SHT31;25763;49.972;8.568;2024-03-29T05:17:05;7.51;80.44
40059;SHT31;25763;49.972;8.568;2024-03-29T05:19:30;7.56;79.85
40059;SHT31;25763;49.972;8.568;2024-03-29T05:21:55;7.39;81.35
40059;SHT31;25763;49.972;8.568;2024-03-29T05:24:21;7.44;81.11
40059;SHT31;25763;49.972;8.568;2024-03-29T05:26:46;7.45;80.71
40059;SHT31;25763;49.972;8.568;2024-03-29T05:29:11;7.39;81.03
40059;SHT31;25763;49.972;8.568;2024-03-29T05:31:37;7.46;80.60
40059;SHT31;25763;49.972;8.568;2024-03-29T05:34:03;7.32;81.73
40059;SHT31;25763;49.972;8.568;2024-03-29T05:36:28;7.28;82.62
40059;SHT31;25763;49.972;8.568;2024-03-29T05:38:54;7.26;82.90
40059;SHT31;25763;49.972;8.568;2024-03-29T05:41:19;7.34;82.35
40059;SHT31;25763;49.972;8.568;2024-03-29T05:43:44;7.28;83.30
40059;SHT31;25763;49.972;8.568;2024-03-29T05:46:10;7.23;83.37
40059;SHT31;25763;49.972;8.568;2024-03-29T05:48:35;7.30;83.41
40059;SHT31;25763;49.972;8.568;2024-03-29T05:51:00;7.34;83.08
40059;SHT31;25763;49.972;8.568;2024-03-29T05:53:26;7.27;84.08
40059;SHT31;25763;49.972;8.568;2024-03-29T05:55:51;7.38;83.78
40059;SHT31;25763;49.972;8.568;2024-03-29T05:58:16;7.52;83.05
40059;SHT31;25763;49.972;8.568;2024-03-29T06:00:46;7.56;83.04
40059;SHT31;25763;49.972;8.568;2024-03-29T06:03:11;7.63;82.31
40059;SHT31;25763;49.972;8.568;2024-03-29T06:05:37;7.67;81.95
40059;SHT31;25763;49.972;8.568;2024-03-29T06:08:02;7.66;82.29
40059;SHT31;25763;49.972;8.568;2024-03-29T06:10:28;7.67;82.45
40059;SHT31;25763;49.972;8.568;2024-03-29T06:12:54;7.71;82.55
40059;SHT31;25763;49.972;8.568;2024-03-29T06:15:19;7.77;81.80
40059;SHT31;25763;49.972;8.568;2024-03-29T06:18:03;7.85;81.59
40059;SHT31;25763;49.972;8.568;2024-03-29T06:20:28;7.89;81.66
40059;SHT31;25763;49.972;8.568;2024-03-29T06:22:54;7.93;81.65
40059;SHT31;25763;49.972;8.568;2024-03-29T06:25:19;8.00;81.94
40059;SHT31;25763;49.972;8.568;2024-03-29T06:27:44;8.04;81.91
40059;SHT31;25763;49.972;8.568;2024-03-29T06:30:13;8.11;82.05
40059;SHT31;25763;49.972;8.568;2024-03-29T06:32:39;8.15;82.30
40059;SHT31;25763;49.972;8.568;2024-03-29T06:35:05;8.22;81.85
40059;SHT31;25763;49.972;8.568;2024-03-29T06:37:31;8.33;81.75
40059;SHT31;25763;49.972;8.568;2024-03-29T06:39:56;8.38;82.12
40059;SHT31;25763;49.972;8.568;2024-03-29T06:42:21;8.43;81.51
40059;SHT31;25763;49.972;8.568;2024-03-29T06:44:47;8.49;81.15
40059;SHT31;25763;49.972;8.568;2024-03-29T06:47:12;8.54;80.93
40059;SHT31;25763;49.972;8.568;2024-03-29T06:49:38;8.59;80.86
40059;SHT31;25763;49.972;8.568;2024-03-29T06:52:03;8.67;81.96
40059;SHT31;25763;49.972;8.568;2024-03-29T06:54:29;8.68;81.38
40059;SHT31;25763;49.972;8.568;2024-03-29T06:56:55;8.75;81.57
40059;SHT31;25763;49.972;8.568;2024-03-29T06:59:21;8.85;81.97
40059;SHT31;25763;49.972;8.568;2024-03-29T07:01:47;8.95;81.82
40059;SHT31;25763;49.972;8.568;2024-03-29T07:04:15;9.01;81.54
40059;SHT31;25763;49.972;8.568;2024-03-29T07:06:40;9.12;81.45
40059;SHT31;25763;49.972;8.568;2024-03-29T07:09:08;9.16;81.86
40059;SHT31;25763;49.972;8.568;2024-03-29T07:11:35;9.11;83.07
40059;SHT31;25763;49.972;8.568;2024-03-29T07:14:00;9.16;82.58
40059;SHT31;25763;49.972;8.568;2024-03-29T07:16:25;9.08;83.26
40059;SHT31;25763;49.972;8.568;2024-03-29T07:18:51;9.22;83.20
40059;SHT31;25763;49.972;8.568;2024-03-29T07:21:16;9.12;84.06
40059;SHT31;25763;49.972;8.568;2024-03-29T07:23:41;9.18;84.15
40059;SHT31;25763;49.972;8.568;2024-03-29T07:26:07;9.19;83.89
40059;SHT31;25763;49.972;8.568;2024-03-29T07:28:33;9.30;83.39
40059;SHT31;25763;49.972;8.568;2024-03-29T07:31:05;9.33;84.07
40059;SHT31;25763;49.972;8.568;2024-03-29T07:33:32;9.46;83.61
40059;SHT31;25763;49.972;8.568;2024-03-29T07:35:58;9.57;83.33
40059;SHT31;25763;49.972;8.568;2024-03-29T07:38:23;9.57;83.30
40059;SHT31;25763;49.972;8.568;2024-03-29T07:40:49;9.48;83.74
40059;SHT31;25763;49.972;8.568;2024-03-29T07:43:15;9.61;83.34
40059;SHT31;25763;49.972;8.568;2024-03-29T07:45:41;9.64;83.23
40059;SHT31;25763;49.972;8.568;2024-03-29T07:48:12;9.55;83.85
40059;SHT31;25763;49.972;8.568;2024-03-29T07:50:37;9.72;83.43
40059;SHT31;25763;49.972;8.568;2024-03-29T07:53:03;9.64;83.94
40059;SHT31;25763;49.972;8.568;2024-03-29T07:55:28;9.61;84.56
40059;SHT31;25763;49.972;8.568;2024-03-29T07:57:53;9.69;84.58
40059;SHT31;25763;49.972;8.568;2024-03-29T08:00:19;9.81;84.65
40059;SHT31;25763;49.972;8.568;2024-03-29T08:02:44;9.91;84.33
40059;SHT31;25763;49.972;8.568;2024-03-29T08:05:09;10.02;83.99
40059;SHT31;25763;49.972;8.568;2024-03-29T08:07:35;10.10;83.61
40059;SHT31;25763;49.972;8.568;2024-03-29T08:10:00;10.16;83.30
40059;SHT31;25763;49.972;8.568;2024-03-29T08:12:26;10.18;83.10
40059;SHT31;25763;49.972;8.568;2024-03-29T08:14:51;10.21;82.80
40059;SHT31;25763;49.972;8.568;2024-03-29T08:17:16;10.12;83.01
40059;SHT31;25763;49.972;8.568;2024-03-29T08:19:42;10.14;82.65
40059;SHT31;25763;49.972;8.568;2024-03-29T08:22:08;10.23;82.68
40059;SHT31;25763;49.972;8.568;2024-03-29T08:24:36;10.27;82.44
40059;SHT31;25763;49.972;8.568;2024-03-29T08:27:02;10.17;82.71
40059;SHT31;25763;49.972;8.568;2024-03-29T08:29:28;10.28;82.56
40059;SHT31;25763;49.972;8.568;2024-03-29T08:31:53;10.37;82.43
40059;SHT31;25763;49.972;8.568;2024-03-29T08:34:18;10.31;82.39
40059;SHT31;25763;49.972;8.568;2024-03-29T08:36:44;10.40;82.00
40059;SHT31;25763;49.972;8.568;2024-03-29T08:39:09;10.33;82.20
40059;SHT31;25763;49.972;8.568;2024-03-29T08:41:35;10.31;82.36
40059;SHT31;25763;49.972;8.568;2024-03-29T08:44:01;10.30;82.24
40059;SHT31;25763;49.972;8.568;2024-03-29T08:46:26;10.30;82.25
40059;SHT31;25763;49.972;8.568;2024-03-29T08:48:53;10.17;82.56
40059;SHT31;25763;49.972;8.568;2024-03-29T08:51:20;10.24;82.53
40059;SHT31;25763;49.972;8.568;2024-03-29T08:53:45;10.20;82.73
40059;SHT31;25763;49.972;8.568;2024-03-29T08:56:12;10.10;83.27
40059;SHT31;25763;49.972;8.568;2024-03-29T08:58:37;9.95;83.56
40059;SHT31;25763;49.972;8.568;2024-03-29T09:01:04;9.99;83.79
40059;SHT31;25763;49.972;8.568;2024-03-29T09:03:29;10.08;83.25
40059;SHT31;25763;49.972;8.568;2024-03-29T09:05:55;10.17;82.80
40059;SHT31;25763;49.972;8.568;2024-03-29T09:08:20;10.24;82.48
40059;SHT31;25763;49.972;8.568;2024-03-29T09:10:46;10.33;82.28
40059;SHT31;25763;49.972;8.568;2024-03-29T09:13:11;10.38;82.15
40059;SHT31;25763;49.972;8.568;2024-03-29T09:15:37;10.41;81.82
40059;SHT31;25763;49.972;8.568;2024-03-29T09:18:02;10.33;82.30
40059;SHT31;25763;49.972;8.568;2024-03-29T09:20:35;10.33;82.55
40059;SHT31;25763;49.972;8.568;2024-03-29T09:23:01;10.31;82.71
40059;SHT31;25763;49.972;8.568;2024-03-29T09:25:26;10.30;82.60
40059;SHT31;25763;49.972;8.568;2024-03-29T09:27:52;10.33;82.19
40059;SHT31;25763;49.972;8.568;2024-03-29T09:30:17;10.31;82.10
40059;SHT31;25763;49.972;8.568;2024-03-29T09:32:44;10.33;82.26
40059;SHT31;25763;49.972;8.568;2024-03-29T09:35:10;10.27;82.81
40059;SHT31;25763;49.972;8.568;2024-03-29T09:37:35;10.34;82.68
40059;SHT31;25763;49.972;8.568;2024-03-29T09:40:03;10.40;82.49
40059;SHT31;25763;49.972;8.568;2024-03-29T09:42:31;10.49;82.36
40059;SHT31;25763;49.972;8.568;2024-03-29T09:44:58;10.62;82.35
40059;SHT31;25763;49.972;8.568;2024-03-29T09:47:25;10.75;82.53
40059;SHT31;25763;49.972;8.568;2024-03-29T09:49:51;10.89;82.43
40059;SHT31;25763;49.972;8.568;2024-03-29T09:52:18;10.96;82.12
40059;SHT31;25763;49.972;8.568;2024-03-29T09:54:45;10.99;81.85
40059;SHT31;25763;49.972;8.568;2024-03-29T09:57:12;10.77;82.01
40059;SHT31;25763;49.972;8.568;2024-03-29T09:59:38;10.89;82.05
40059;SHT31;25763;49.972;8.568;2024-03-29T10:02:49;10.90;82.40
40059;SHT31;25763;49.972;8.568;2024-03-29T10:04:56;10.90;82.27
40059;SHT31;25763;49.972;8.568;2024-03-29T10:07:23;10.99;82.12
40059;SHT31;25763;49.972;8.568;2024-03-29T10:09:49;11.08;81.88
40059;SHT31;25763;49.972;8.568;2024-03-29T10:12:16;11.03;81.79
40059;SHT31;25763;49.972;8.568;2024-03-29T10:14:49;10.86;81.52
40059;SHT31;25763;49.972;8.568;2024-03-29T10:17:18;10.64;82.24
40059;SHT31;25763;49.972;8.568;2024-03-29T10:19:45;10.59;82.46
40059;SHT31;25763;49.972;8.568;2024-03-29T10:22:10;10.57;82.74
40059;SHT31;25763;49.972;8.568;2024-03-29T10:24:36;10.40;82.77
40059;SHT31;25763;49.972;8.568;2024-03-29T10:27:02;10.54;83.21
40059;SHT31;25763;49.972;8.568;2024-03-29T10:29:28;10.51;83.41
40059;SHT31;25763;49.972;8.568;2024-03-29T10:31:55;10.51;83.08
40059;SHT31;25763;49.972;8.568;2024-03-29T10:34:21;10.58;83.42
40059;SHT31;25763;49.972;8.568;2024-03-29T10:36:47;10.62;83.21
40059;SHT31;25763;49.972;8.568;2024-03-29T10:39:12;10.42;83.11
40059;SHT31;25763;49.972;8.568;2024-03-29T10:41:45;10.48;83.40
40059;SHT31;25763;49.972;8.568;2024-03-29T10:44:12;10.48;83.72
40059;SHT31;25763;49.972;8.568;2024-03-29T10:46:38;10.42;83.66
40059;SHT31;25763;49.972;8.568;2024-03-29T10:49:09;10.41;83.91
40059;SHT31;25763;49.972;8.568;2024-03-29T10:51:39;10.54;84.10
40059;SHT31;25763;49.972;8.568;2024-03-29T10:54:09;10.75;84.24
40059;SHT31;25763;49.972;8.568;2024-03-29T10:56:36;10.93;83.82
40059;SHT31;25763;49.972;8.568;2024-03-29T10:59:54;10.97;83.78
40059;SHT31;25763;49.972;8.568;2024-03-29T11:02:00;11.11;83.88
40059;SHT31;25763;49.972;8.568;2024-03-29T11:04:33;11.22;83.71
40059;SHT31;25763;49.972;8.568;2024-03-29T11:07:06;11.28;83.39
40059;SHT31;25763;49.972;8.568;2024-03-29T11:09:33;11.21;83.17
40059;SHT31;25763;49.972;8.568;2024-03-29T11:12:01;11.22;83.08
40059;SHT31;25763;49.972;8.568;2024-03-29T11:14:42;11.39;83.34
40059;SHT31;25763;49.972;8.568;2024-03-29T11:17:07;11.46;82.94
40059;SHT31;25763;49.972;8.568;2024-03-29T11:19:33;11.48;82.85
40059;SHT31;25763;49.972;8.568;2024-03-29T11:21:58;11.58;83.03
40059;SHT31;25763;49.972;8.568;2024-03-29T11:24:26;11.73;82.90
40059;SHT31;25763;49.972;8.568;2024-03-29T11:26:51;11.62;82.58
40059;SHT31;25763;49.972;8.568;2024-03-29T11:29:22;11.70;82.98
40059;SHT31;25763;49.972;8.568;2024-03-29T11:31:56;11.71;82.69
40059;SHT31;25763;49.972;8.568;2024-03-29T11:34:21;11.80;83.00
40059;SHT31;25763;49.972;8.568;2024-03-29T11:36:46;11.79;83.14
40059;SHT31;25763;49.972;8.568;2024-03-29T11:39:22;11.80;83.20
40059;SHT31;25763;49.972;8.568;2024-03-29T11:41:49;11.76;83.38
40059;SHT31;25763;49.972;8.568;2024-03-29T11:44:15;11.66;83.78
40059;SHT31;25763;49.972;8.568;2024-03-29T11:46:41;11.66;83.91
40059;SHT31;25763;49.972;8.568;2024-03-29T11:49:07;11.67;84.15
40059;SHT31;25763;49.972;8.568;2024-03-29T11:51:33;11.65;84.35
40059;SHT31;25763;49.972;8.568;2024-03-29T11:53:59;11.63;84.78
40059;SHT31;25763;49.972;8.568;2024-03-29T11:56:25;11.69;85.15
40059;SHT31;25763;49.972;8.568;2024-03-29T11:58:50;11.70;85.45
40059;SHT31;25763;49.972;8.568;2024-03-29T12:01:16;11.79;85.46
40059;SHT31;25763;49.972;8.568;2024-03-29T12:03:42;11.77;85.57
40059;SHT31;25763;49.972;8.568;2024-03-29T12:06:09;11.80;85.51
40059;SHT31;25763;49.972;8.568;2024-03-29T12:08:39;11.79;85.41
40059;SHT31;25763;49.972;8.568;2024-03-29T12:11:05;11.80;85.56
40059;SHT31;25763;49.972;8.568;2024-03-29T12:13:31;11.90;85.46
40059;SHT31;25763;49.972;8.568;2024-03-29T12:15:57;11.87;85.41
40059;SHT31;25763;49.972;8.568;2024-03-29T12:18:24;11.94;85.31
40059;SHT31;25763;49.972;8.568;2024-03-29T12:20:51;12.05;85.16
40059;SHT31;25763;49.972;8.568;2024-03-29T12:23:19;12.09;85.13
40059;SHT31;25763;49.972;8.568;2024-03-29T12:25:45;12.17;85.10
40059;SHT31;25763;49.972;8.568;2024-03-29T12:28:12;12.20;85.00
40059;SHT31;25763;49.972;8.568;2024-03-29T12:30:41;12.28;84.84
40059;SHT31;25763;49.972;8.568;2024-03-29T12:33:08;12.32;84.72
40059;SHT31;25763;49.972;8.568;2024-03-29T12:35:36;12.32;84.60
40059;SHT31;25763;49.972;8.568;2024-03-29T12:38:03;12.36;84.74
40059;SHT31;25763;49.972;8.568;2024-03-29T12:40:31;12.43;84.69
40059;SHT31;25763;49.972;8.568;2024-03-29T12:43:04;12.39;84.52
40059;SHT31;25763;49.972;8.568;2024-03-29T12:45:31;12.46;84.59
40059;SHT31;25763;49.972;8.568;2024-03-29T12:47:56;12.43;84.88
40059;SHT31;25763;49.972;8.568;2024-03-29T12:50:26;12.42;84.83
40059;SHT31;25763;49.972;8.568;2024-03-29T12:53:13;12.39;85.00
40059;SHT31;25763;49.972;8.568;2024-03-29T12:55:40;12.32;84.97
40059;SHT31;25763;49.972;8.568;2024-03-29T12:58:07;12.29;85.19
40059;SHT31;25763;49.972;8.568;2024-03-29T13:00:35;12.25;85.52
40059;SHT31;25763;49.972;8.568;2024-03-29T13:03:01;12.22;85.36
40059;SHT31;25763;49.972;8.568;2024-03-29T13:05:26;12.22;85.82
40059;SHT31;25763;49.972;8.568;2024-03-29T13:07:54;12.24;85.79
40059;SHT31;25763;49.972;8.568;2024-03-29T13:10:20;12.22;85.92
40059;SHT31;25763;49.972;8.568;2024-03-29T13:12:46;12.25;86.05
40059;SHT31;25763;49.972;8.568;2024-03-29T13:15:23;12.38;85.93
40059;SHT31;25763;49.972;8.568;2024-03-29T13:17:50;12.43;85.85
40059;SHT31;25763;49.972;8.568;2024-03-29T13:20:16;12.50;85.78
40059;SHT31;25763;49.972;8.568;2024-03-29T13:22:43;12.49;85.54
40059;SHT31;25763;49.972;8.568;2024-03-29T13:25:11;12.52;85.33
40059;SHT31;25763;49.972;8.568;2024-03-29T13:27:38;12.53;85.34
40059;SHT31;25763;49.972;8.568;2024-03-29T13:30:07;12.67;85.29
40059;SHT31;25763;49.972;8.568;2024-03-29T13:32:38;12.63;84.92
40059;SHT31;25763;49.972;8.568;2024-03-29T13:35:04;12.64;84.76
40059;SHT31;25763;49.972;8.568;2024-03-29T13:37:33;12.78;84.67
40059;SHT31;25763;49.972;8.568;2024-03-29T13:39:59;12.89;84.73
40059;SHT31;25763;49.972;8.568;2024-03-29T13:42:24;12.87;84.46
40059;SHT31;25763;49.972;8.568;2024-03-29T13:44:50;12.87;84.59
40059;SHT31;25763;49.972;8.568;2024-03-29T13:47:16;12.70;84.56
40059;SHT31;25763;49.972;8.568;2024-03-29T13:49:42;12.64;84.52
40059;SHT31;25763;49.972;8.568;2024-03-29T13:52:08;12.70;84.70
40059;SHT31;25763;49.972;8.568;2024-03-29T13:54:33;12.74;84.57
40059;SHT31;25763;49.972;8.568;2024-03-29T13:56:59;12.73;84.24
40059;SHT31;25763;49.972;8.568;2024-03-29T13:59:26;12.63;84.27
40059;SHT31;25763;49.972;8.568;2024-03-29T14:01:52;12.65;84.58
40059;SHT31;25763;49.972;8.568;2024-03-29T14:04:17;12.74;84.46
40059;SHT31;25763;49.972;8.568;2024-03-29T14:06:42;12.75;84.25
40059;SHT31;25763;49.972;8.568;2024-03-29T14:09:08;12.70;84.30
40059;SHT31;25763;49.972;8.568;2024-03-29T14:11:33;12.70;84.56
40059;SHT31;25763;49.972;8.568;2024-03-29T14:13:58;12.63;84.88
40059;SHT31;25763;49.972;8.568;2024-03-29T14:16:24;12.68;84.76
40059;SHT31;25763;49.972;8.568;2024-03-29T14:18:49;12.68;84.94
40059;SHT31;25763;49.972;8.568;2024-03-29T14:21:14;12.68;85.37
40059;SHT31;25763;49.972;8.568;2024-03-29T14:23:40;12.71;85.59
40059;SHT31;25763;49.972;8.568;2024-03-29T14:26:05;12.74;85.60
40059;SHT31;25763;49.972;8.568;2024-03-29T14:28:31;12.71;85.43
40059;SHT31;25763;49.972;8.568;2024-03-29T14:30:56;12.74;85.47
40059;SHT31;25763;49.972;8.568;2024-03-29T14:33:22;12.70;85.64
40059;SHT31;25763;49.972;8.568;2024-03-29T14:35:47;12.64;85.94
40059;SHT31;25763;49.972;8.568;2024-03-29T14:38:15;12.56;86.10
40059;SHT31;25763;49.972;8.568;2024-03-29T14:40:40;12.56;85.96
40059;SHT31;25763;49.972;8.568;2024-03-29T14:43:06;12.63;86.26
40059;SHT31;25763;49.972;8.568;2024-03-29T14:45:32;12.71;86.35
40059;SHT31;25763;49.972;8.568;2024-03-29T14:47:58;12.74;86.44
40059;SHT31;25763;49.972;8.568;2024-03-29T14:50:23;12.78;86.44
40059;SHT31;25763;49.972;8.568;2024-03-29T14:52:49;12.75;86.30
40059;SHT31;25763;49.972;8.568;2024-03-29T14:55:14;12.82;86.28
40059;SHT31;25763;49.972;8.568;2024-03-29T14:57:39;12.81;85.98
40059;SHT31;25763;49.972;8.568;2024-03-29T15:00:06;12.64;85.77
40059;SHT31;25763;49.972;8.568;2024-03-29T15:02:33;12.71;86.01
40059;SHT31;25763;49.972;8.568;2024-03-29T15:04:59;12.74;86.30
40059;SHT31;25763;49.972;8.568;2024-03-29T15:07:24;12.80;86.20
40059;SHT31;25763;49.972;8.568;2024-03-29T15:09:50;12.70;86.47
40059;SHT31;25763;49.972;8.568;2024-03-29T15:12:16;12.60;86.59
40059;SHT31;25763;49.972;8.568;2024-03-29T15:14:41;12.59;86.70
40059;SHT31;25763;49.972;8.568;2024-03-29T15:17:07;12.56;86.51
40059;SHT31;25763;49.972;8.568;2024-03-29T15:19:32;12.61;86.27
40059;SHT31;25763;49.972;8.568;2024-03-29T15:21:58;12.71;86.00
40059;SHT31;25763;49.972;8.568;2024-03-29T15:24:24;12.64;85.42
40059;SHT31;25763;49.972;8.568;2024-03-29T15:26:49;12.60;85.59
40059;SHT31;25763;49.972;8.568;2024-03-29T15:29:17;12.59;85.82
40059;SHT31;25763;49.972;8.568;2024-03-29T15:31:43;12.61;85.76
40059;SHT31;25763;49.972;8.568;2024-03-29T15:34:10;12.61;85.56